Time;durP1;ratioP1;P1;durP2;ratioP2;P2;SDS_P1;SDS_P2;PMS_P1;PMS_P2;Temp;Humidity;BMP_temperature;BMP_pressure;BME280_temperature;BME280_humidity;BME280_pressure;Samples;Min_cycle;Max_cycle;Signal;HPM_P1;HPM_P2
2023/01/14 00:01:08;;;;;;;60.00;5.35;;;;;;;8.92;100.00;98141.81;4993094;28;20046;-57
2023/01/14 00:03:33;;;;;;;46.53;4.53;;;;;;;9.23;100.00;98132.47;4994862;28;20648;-55
2023/01/14 00:06:00;;;;;;;58.95;5.22;;;;;;;8.71;100.00;98131.34;4994556;28;20045;-56
2023/01/14 00:08:27;;;;;;;42.90;4.60;;;;;;;8.72;100.00;98135.66;4994283;28;20471;-56
2023/01/14 00:10:53;;;;;;;49.92;4.68;;;;;;;8.82;100.00;98135.72;4992095;28;20038;-55
2023/01/14 00:13:19;;;;;;;51.33;5.07;;;;;;;8.64;100.00;98131.28;4995892;28;20434;-58
2023/01/14 00:15:56;;;;;;;44.50;4.22;;;;;;;8.31;100.00;98131.88;4994847;28;20046;-55
2023/01/14 00:18:23;;;;;;;54.28;5.43;;;;;;;8.57;100.00;98130.34;4994354;28;20025;-55
2023/01/14 00:21:06;;;;;;;36.70;3.97;;;;;;;8.86;100.00;98129.69;4993205;28;20120;-56
2023/01/14 00:23:33;;;;;;;48.40;4.68;;;;;;;8.52;100.00;98127.72;4995784;28;20029;-58
2023/01/14 00:26:15;;;;;;;49.20;4.97;;;;;;;8.58;100.00;98124.34;4996695;28;20200;-56
2023/01/14 00:28:41;;;;;;;;;;;;;;;8.53;100.00;98119.13;4996450;28;20033;-55
2023/01/14 00:31:10;;;;;;;38.70;3.92;;;;;;;8.28;100.00;98108.53;4991456;28;19917;-56
2023/01/14 00:33:37;;;;;;;55.28;5.05;;;;;;;8.32;100.00;98118.06;4993956;28;20025;-58
2023/01/14 00:36:05;;;;;;;51.45;5.07;;;;;;;8.39;100.00;98115.53;4993286;28;20134;-56
2023/01/14 00:38:30;;;;;;;64.28;5.80;;;;;;;8.01;100.00;98128.16;4993633;28;20022;-55
2023/01/14 00:41:06;;;;;;;51.90;4.80;;;;;;;8.16;100.00;98124.84;4991882;28;20040;-55
2023/01/14 00:43:32;;;;;;;68.70;5.90;;;;;;;8.24;100.00;98134.41;4994658;28;20442;-57
2023/01/14 00:45:58;;;;;;;50.72;4.53;;;;;;;8.53;100.00;98129.47;4991846;28;20045;-56
2023/01/14 00:48:23;;;;;;;44.83;4.75;;;;;;;8.59;100.00;98128.66;4992115;28;20100;-56
2023/01/14 00:50:49;;;;;;;49.70;5.05;;;;;;;8.20;100.00;98134.38;4992407;28;20080;-55
2023/01/14 00:53:14;;;;;;;39.08;3.83;;;;;;;8.03;100.00;98138.53;4992032;28;20026;-55
2023/01/14 00:55:39;;;;;;;59.75;5.22;;;;;;;7.98;100.00;98135.91;4992928;28;20097;-57
2023/01/14 00:58:05;;;;;;;52.58;4.78;;;;;;;8.57;100.00;98136.41;4995430;28;20029;-58
2023/01/14 01:00:30;;;;;;;57.30;5.43;;;;;;;8.72;100.00;98143.44;4991923;28;20175;-57
2023/01/14 01:02:57;;;;;;;68.22;5.95;;;;;;;8.45;100.00;98152.72;4991295;28;20087;-57
2023/01/14 01:05:22;;;;;;;56.22;5.15;;;;;;;9.16;100.00;98143.69;4991267;28;20755;-57
2023/01/14 01:07:48;;;;;;;64.32;5.88;;;;;;;8.69;100.00;98147.75;4994023;28;20033;-57
2023/01/14 01:10:13;;;;;;;56.70;5.32;;;;;;;8.81;100.00;98141.75;4991761;28;20069;-57
2023/01/14 01:12:38;;;;;;;50.60;4.72;;;;;;;8.64;100.00;98142.53;4994243;28;20026;-57
2023/01/14 01:15:04;;;;;;;68.18;6.03;;;;;;;8.36;100.00;98147.47;4991322;28;20058;-56
2023/01/14 01:17:30;;;;;;;54.25;5.32;;;;;;;8.50;100.00;98152.75;4993800;28;20030;-58
2023/01/14 01:19:55;;;;;;;64.03;5.88;;;;;;;8.30;100.00;98157.78;4996101;28;20053;-56
2023/01/14 01:22:21;;;;;;;61.15;5.80;;;;;;;8.27;100.00;98155.16;4994591;28;20061;-54
2023/01/14 01:24:46;;;;;;;48.40;4.75;;;;;;;8.56;100.00;98154.56;4993751;28;20483;-55
2023/01/14 01:27:12;;;;;;;69.40;6.03;;;;;;;8.49;100.00;98142.41;4992288;28;20038;-56
2023/01/14 01:29:38;;;;;;;61.03;5.50;;;;;;;8.56;100.00;98146.78;4992321;28;20073;-56
2023/01/14 01:32:03;;;;;;;63.67;5.78;;;;;;;8.46;100.00;98144.09;4990226;28;20054;-56
2023/01/14 01:34:28;;;;;;;56.45;5.05;;;;;;;8.44;100.00;98150.13;4991470;28;20125;-55
2023/01/14 01:36:54;;;;;;;56.42;5.55;;;;;;;8.20;100.00;98152.53;4991704;28;20116;-55
2023/01/14 01:39:19;;;;;;;65.40;6.13;;;;;;;8.25;100.00;98154.28;4992932;28;20058;-57
2023/01/14 01:41:44;;;;;;;45.08;4.55;;;;;;;8.50;100.00;98167.44;4994214;28;20048;-56
2023/01/14 01:44:13;;;;;;;62.38;5.55;;;;;;;8.36;100.00;98165.63;4992390;28;20022;-56
2023/01/14 01:46:40;;;;;;;42.42;4.72;;;;;;;8.05;100.00;98158.44;4994131;28;20042;-57
2023/01/14 01:49:18;;;;;;;46.40;4.28;;;;;;;7.94;100.00;98160.91;4993775;28;20769;-55
2023/01/14 01:51:52;;;;;;;55.38;5.25;;;;;;;8.07;100.00;98164.50;4988631;28;20041;-55
2023/01/14 01:54:22;;;;;;;47.50;4.95;;;;;;;8.50;100.00;98170.03;4992401;28;20041;-56
2023/01/14 01:56:48;;;;;;;51.90;4.93;;;;;;;7.90;100.00;98169.50;4991274;28;20573;-56
2023/01/14 01:59:17;;;;;;;51.22;5.13;;;;;;;8.28;100.00;98165.53;4993504;28;20560;-55
2023/01/14 02:01:42;;;;;;;56.10;4.95;;;;;;;7.82;100.00;98168.56;4991092;28;20038;-56
2023/01/14 02:04:11;;;;;;;46.28;4.60;;;;;;;8.08;100.00;98165.34;4990866;28;20068;-56
2023/01/14 02:06:37;;;;;;;65.50;6.25;;;;;;;7.85;100.00;98166.00;4990745;28;20034;-58
2023/01/14 02:09:03;;;;;;;58.50;5.28;;;;;;;8.04;100.00;98176.53;4992231;28;20032;-57
2023/01/14 02:12:20;;;;;;;58.42;5.30;;;;;;;8.17;100.00;98173.22;4991009;28;20064;-58
2023/01/14 02:15:15;;;;;;;72.78;6.65;;;;;;;8.06;100.00;98175.69;4960006;28;20108;-57
2023/01/14 02:18:25;;;;;;;78.88;6.53;;;;;;;7.64;100.00;98174.38;4990572;28;20088;-56
2023/01/14 02:21:09;;;;;;;65.68;6.03;;;;;;;7.74;100.00;98178.84;4969595;28;20041;-58
2023/01/14 02:23:41;;;;;;;57.20;5.03;;;;;;;7.91;100.00;98179.00;4990160;28;20029;-56
2023/01/14 02:26:21;;;;;;;51.85;4.55;;;;;;;7.65;100.00;98178.75;4992986;28;20064;-56
2023/01/14 02:29:03;;;;;;;60.50;5.78;;;;;;;7.90;100.00;98185.03;4990679;28;20022;-56
2023/01/14 02:31:31;;;;;;;51.80;5.40;;;;;;;7.98;100.00;98189.44;4991725;28;20420;-56
2023/01/14 02:34:10;;;;;;;69.85;6.25;;;;;;;8.24;100.00;98199.19;4988795;28;20033;-56
2023/01/14 02:36:53;;;;;;;51.42;5.05;;;;;;;7.97;100.00;98198.06;4990567;28;20049;-55
2023/01/14 02:39:35;;;;;;;54.20;5.50;;;;;;;7.86;100.00;98198.81;4991812;28;20083;-55
2023/01/14 02:45:11;;;;;;;56.85;5.70;;;;;;;8.34;100.00;98208.78;4992946;28;20629;-56
2023/01/14 02:47:39;;;;;;;47.28;4.93;;;;;;;7.91;100.00;98204.06;4991687;28;20046;-55
2023/01/14 02:50:06;;;;;;;76.30;6.55;;;;;;;8.02;100.00;98201.56;4990962;28;20443;-57
2023/01/14 02:52:32;;;;;;;55.92;5.20;;;;;;;8.11;100.00;98212.03;4990892;28;20033;-57
2023/01/14 02:55:00;;;;;;;59.67;5.47;;;;;;;7.94;100.00;98215.31;4992053;28;20030;-57
2023/01/14 02:57:34;;;;;;;59.08;5.30;;;;;;;8.14;100.00;98214.66;4989176;28;20095;-56
2023/01/14 03:00:09;;;;;;;54.83;4.72;;;;;;;7.91;100.00;98211.81;4991987;28;20029;-56
2023/01/14 03:02:44;;;;;;;52.15;5.20;;;;;;;7.93;100.00;98216.16;4988704;28;20045;-56
2023/01/14 03:05:25;;;;;;;58.72;6.65;;;;;;;8.07;100.00;98215.44;4992105;28;20080;-55
2023/01/14 03:07:58;;;;;;;56.33;5.40;;;;;;;8.14;100.00;98209.47;4994917;28;20042;-56
2023/01/14 03:10:40;;;;;;;61.80;5.47;;;;;;;7.74;100.00;98215.09;4993497;28;20041;-56
2023/01/14 03:13:14;;;;;;;;;;;;;;;8.20;100.00;98206.94;4996164;28;20065;-56
2023/01/14 03:15:49;;;;;;;57.83;4.65;;;;;;;7.82;100.00;98212.56;4995711;28;19921;-56
2023/01/14 03:18:33;;;;;;;56.88;5.28;;;;;;;7.71;100.00;98215.03;4995272;28;20041;-56
2023/01/14 03:21:04;;;;;;;48.13;5.00;;;;;;;7.56;100.00;98220.91;4995145;28;20955;-56
2023/01/14 03:23:33;;;;;;;75.33;6.40;;;;;;;7.67;100.00;98210.69;4994171;28;20038;-56
2023/01/14 03:26:00;;;;;;;56.45;5.15;;;;;;;7.60;100.00;98216.63;4991620;28;20100;-58
2023/01/14 03:28:34;;;;;;;70.70;5.93;;;;;;;7.58;100.00;98216.63;4994456;28;20029;-56
2023/01/14 03:31:06;;;;;;;61.03;5.75;;;;;;;7.58;100.00;98218.34;4995138;28;20065;-55
2023/01/14 03:33:39;;;;;;;60.58;5.57;;;;;;;7.74;100.00;98215.09;4991801;28;20820;-55
2023/01/14 03:36:06;;;;;;;55.13;4.90;;;;;;;7.75;100.00;98209.06;4993995;28;20141;-55
2023/01/14 03:38:48;;;;;;;59.97;5.45;;;;;;;7.93;100.00;98208.41;4994793;28;20022;-55
2023/01/14 03:42:17;;;;;;;52.75;4.95;;;;;;;7.78;100.00;98208.22;4993116;28;20045;-56
2023/01/14 03:44:07;;;;;;;54.05;4.95;;;;;;;7.63;100.00;98202.00;4993886;28;20495;-55
2023/01/14 03:46:32;;;;;;;59.05;5.60;;;;;;;7.77;100.00;98209.06;4996210;28;20072;-57
2023/01/14 03:48:57;;;;;;;64.63;5.95;;;;;;;7.84;100.00;98216.06;4994500;28;20487;-56
2023/01/14 03:51:33;;;;;;;48.47;4.57;;;;;;;7.51;100.00;98210.50;4993999;28;20048;-55
2023/01/14 03:54:08;;;;;;;66.70;6.30;;;;;;;7.90;100.00;98213.53;4994098;28;20499;-56
2023/01/14 03:57:11;;;;;;;61.85;5.10;;;;;;;7.66;100.00;98215.00;4995195;28;20121;-55
2023/01/14 03:59:57;;;;;;;67.65;5.78;;;;;;;7.82;100.00;98208.28;4996140;28;20025;-54
2023/01/14 04:02:24;;;;;;;56.20;5.30;;;;;;;7.76;100.00;98203.00;4993186;28;20061;-55
2023/01/14 04:04:51;;;;;;;57.33;5.28;;;;;;;7.63;100.00;98211.50;4994891;28;20037;-55
2023/01/14 04:07:16;;;;;;;54.67;4.88;;;;;;;7.62;100.00;98209.75;4991231;28;20041;-55
2023/01/14 04:09:41;;;;;;;51.75;5.13;;;;;;;7.60;100.00;98206.28;4994882;28;20022;-56
2023/01/14 04:12:07;;;;;;;61.22;5.80;;;;;;;7.68;100.00;98222.75;4996365;28;20041;-56
2023/01/14 04:17:16;;;;;;;72.25;6.72;;;;;;;7.94;100.00;98211.84;4994157;28;20037;-56
2023/01/14 04:19:41;;;;;;;62.60;5.43;;;;;;;7.91;100.00;98211.81;4993369;28;20026;-56
2023/01/14 04:22:07;;;;;;;65.55;5.68;;;;;;;7.66;100.00;98206.34;4993914;28;20042;-57
2023/01/14 04:24:32;;;;;;;56.78;5.45;;;;;;;7.47;100.00;98205.25;4992179;28;20084;-55
2023/01/14 04:26:57;;;;;;;62.25;5.43;;;;;;;7.42;100.00;98206.06;4992227;28;20038;-56
2023/01/14 04:29:23;;;;;;;71.10;6.13;;;;;;;7.38;100.00;98201.72;4993458;28;20114;-55
2023/01/14 04:31:48;;;;;;;53.05;4.85;;;;;;;7.42;100.00;98203.47;4994408;28;20775;-55
2023/01/14 04:34:14;;;;;;;46.83;4.78;;;;;;;7.44;100.00;98219.03;4994652;28;20030;-55
2023/01/14 04:36:39;;;;;;;67.95;5.80;;;;;;;7.50;100.00;98210.47;4992907;28;20038;-55
2023/01/14 04:39:04;;;;;;;59.90;5.40;;;;;;;7.40;100.00;98207.78;4994437;28;20034;-54
2023/01/14 04:44:14;;;;;;;50.25;4.85;;;;;;;7.32;100.00;98212.00;4992695;28;20181;-55
2023/01/14 04:46:39;;;;;;;73.72;6.50;;;;;;;7.32;100.00;98217.16;4993143;28;20690;-56
2023/01/14 04:49:04;;;;;;;52.50;5.05;;;;;;;7.32;100.00;98227.50;4991446;28;20033;-56
2023/01/14 04:51:30;;;;;;;57.72;5.35;;;;;;;7.41;100.00;98219.00;4992276;28;20045;-54
2023/01/14 04:53:55;;;;;;;55.42;4.88;;;;;;;7.37;100.00;98219.78;4991151;28;20022;-55
2023/01/14 04:56:20;;;;;;;59.70;5.07;;;;;;;7.19;100.00;98215.25;4988883;28;20042;-55
2023/01/14 04:58:47;;;;;;;73.70;6.43;;;;;;;7.26;100.00;98220.53;4991645;28;20030;-55
2023/01/14 05:01:12;;;;;;;58.42;5.55;;;;;;;7.24;100.00;98216.19;4992442;28;20096;-55
2023/01/14 05:03:38;;;;;;;58.55;5.10;;;;;;;7.24;100.00;98209.28;4995178;28;20038;-55
2023/01/14 05:06:04;;;;;;;54.35;5.30;;;;;;;7.29;100.00;98209.34;4995462;28;20830;-56
2023/01/14 05:08:31;;;;;;;71.50;6.03;;;;;;;7.16;100.00;98214.34;4994462;28;20092;-56
2023/01/14 05:10:56;;;;;;;59.92;5.40;;;;;;;7.39;100.00;98200.84;4992276;28;20125;-55
2023/01/14 05:13:22;;;;;;;56.40;5.20;;;;;;;7.18;100.00;98200.56;4993510;28;20123;-55
2023/01/14 05:15:47;;;;;;;52.88;5.65;;;;;;;7.09;100.00;98203.91;4991598;28;20084;-55
2023/01/14 05:18:14;;;;;;;50.83;4.95;;;;;;;7.12;100.00;98206.50;4993322;28;20091;-55
2023/01/14 05:20:41;;;;;;;56.42;5.30;;;;;;;7.02;100.00;98201.22;4992453;28;20041;-55
2023/01/14 05:23:14;;;;;;;67.05;6.55;;;;;;;6.92;100.00;98201.94;4991101;28;20085;-55
2023/01/14 05:25:39;;;;;;;52.55;4.95;;;;;;;6.79;100.00;98205.19;4993824;28;20045;-56
2023/01/14 05:28:08;;;;;;;72.55;6.28;;;;;;;6.84;100.00;98207.00;4992045;28;20023;-55
2023/01/14 05:30:34;;;;;;;65.68;5.43;;;;;;;6.80;100.00;98201.75;4991778;28;20880;-55
2023/01/14 05:32:59;;;;;;;62.70;5.38;;;;;;;6.62;100.00;98198.03;4989505;28;20030;-56
2023/01/14 05:35:25;;;;;;;53.88;4.82;;;;;;;6.48;100.00;98206.44;4991852;28;20041;-56
2023/01/14 05:37:51;;;;;;;59.15;5.75;;;;;;;6.48;100.00;98205.56;4993599;28;20030;-55
2023/01/14 05:40:17;;;;;;;66.45;5.85;;;;;;;6.40;100.00;98199.41;4989546;28;20141;-55
2023/01/14 05:45:41;;;;;;;64.10;5.47;;;;;;;6.32;100.00;98195.00;4991678;28;20037;-56
2023/01/14 05:48:08;;;;;;;53.05;5.03;;;;;;;6.16;100.00;98192.97;4992550;28;20034;-55
2023/01/14 05:50:34;;;;;;;56.88;5.10;;;;;;;6.10;100.00;98193.72;4975190;28;20041;-55
2023/01/14 05:52:59;;;;;;;71.10;5.75;;;;;;;6.14;100.00;98202.41;4991265;28;20048;-56
2023/01/14 05:55:25;;;;;;;74.47;6.63;;;;;;;5.91;100.00;98197.66;4992336;28;20160;-56
2023/01/14 05:57:50;;;;;;;55.25;5.40;;;;;;;5.91;100.00;98205.41;4992199;28;20083;-55
2023/01/14 06:06:30;;;;;;;60.42;5.55;;;;;;;5.58;100.00;98228.88;4915792;29;20043;-56
2023/01/14 06:09:01;;;;;;;55.20;5.00;;;;;;;5.45;100.00;98224.28;4974989;28;20069;-56
2023/01/14 06:11:29;;;;;;;56.60;5.25;;;;;;;5.43;100.00;98228.56;4989271;28;20108;-56
2023/01/14 06:13:57;;;;;;;63.78;5.72;;;;;;;5.46;100.00;98223.47;4991893;28;20026;-58
2023/01/14 06:16:26;;;;;;;55.28;4.88;;;;;;;5.29;100.00;98223.09;4990274;28;20045;-56
2023/01/14 06:18:52;;;;;;;66.10;5.68;;;;;;;5.36;100.00;98216.34;4993775;28;20037;-56
2023/01/14 06:21:20;;;;;;;63.83;5.45;;;;;;;5.27;100.00;98212.72;4990426;28;20036;-57
2023/01/14 06:23:47;;;;;;;69.25;6.00;;;;;;;5.16;100.00;98209.94;4991888;28;20034;-57
2023/01/14 06:26:15;;;;;;;68.78;6.25;;;;;;;5.27;100.00;98201.56;4989984;28;20742;-56
2023/01/14 06:28:40;;;;;;;63.97;5.38;;;;;;;5.14;100.00;98210.72;4990936;28;20037;-56
2023/01/14 06:31:14;;;;;;;69.38;6.63;;;;;;;5.20;100.00;98213.47;4990677;28;20037;-56
2023/01/14 06:33:40;;;;;;;63.70;5.95;;;;;;;5.46;100.00;98218.31;4992663;28;20144;-56
2023/01/14 06:36:09;;;;;;;54.97;5.85;;;;;;;5.29;100.00;98218.81;4990742;28;20486;-57
2023/01/14 06:38:36;;;;;;;47.53;4.63;;;;;;;5.44;100.00;98218.28;4990529;28;20566;-56
2023/01/14 06:41:03;;;;;;;60.33;5.00;;;;;;;5.29;100.00;98208.50;4990664;28;20722;-58
2023/01/14 06:43:28;;;;;;;57.75;5.25;;;;;;;5.25;100.00;98214.44;4991965;28;20033;-56
2023/01/14 06:45:55;;;;;;;57.60;5.55;;;;;;;5.52;100.00;98202.06;4991225;28;20035;-56
2023/01/14 06:48:21;;;;;;;46.83;4.20;;;;;;;5.44;100.00;98207.94;4991660;28;20476;-56
2023/01/14 06:50:46;;;;;;;36.38;4.10;;;;;;;5.38;100.00;98212.13;4989660;28;20057;-57
2023/01/14 06:53:12;;;;;;;67.50;5.45;;;;;;;5.84;100.00;98204.41;4991994;28;20026;-57
2023/01/14 06:55:37;;;;;;;67.95;5.72;;;;;;;6.04;100.00;98203.94;4992831;28;20100;-56
2023/01/14 06:58:02;;;;;;;66.65;5.88;;;;;;;6.06;100.00;98200.56;4991005;28;20034;-57
2023/01/14 07:00:28;;;;;;;62.28;5.63;;;;;;;5.87;100.00;98201.91;4991545;28;20081;-56
2023/01/14 07:02:54;;;;;;;51.72;4.93;;;;;;;5.86;100.00;98200.13;4990839;28;20143;-57
2023/01/14 07:05:19;;;;;;;73.32;6.05;;;;;;;5.89;100.00;98191.56;4989551;28;20195;-56
2023/01/14 07:07:46;;;;;;;49.55;4.72;;;;;;;6.06;100.00;98181.59;4992232;28;20018;-56
2023/01/14 07:10:11;;;;;;;60.42;5.70;;;;;;;5.90;100.00;98186.44;4989455;28;21012;-57
2023/01/14 07:12:37;;;;;;;58.05;5.40;;;;;;;5.76;100.00;98182.75;4990751;28;20076;-56
2023/01/14 07:15:02;;;;;;;59.15;5.20;;;;;;;5.75;100.00;98179.28;4990301;28;20124;-56
2023/01/14 07:17:28;;;;;;;79.85;6.00;;;;;;;5.62;100.00;98190.22;4992492;28;20069;-56
2023/01/14 07:19:53;;;;;;;65.65;5.70;;;;;;;5.73;100.00;98187.00;4992363;28;20065;-56
2023/01/14 07:22:18;;;;;;;59.38;5.78;;;;;;;6.11;100.00;98185.13;4989568;28;20442;-56
2023/01/14 07:24:44;;;;;;;50.50;5.93;;;;;;;6.31;100.00;98182.03;4992062;28;20022;-56
2023/01/14 07:27:09;;;;;;;67.97;6.78;;;;;;;6.54;100.00;98186.72;4989739;28;20161;-56
2023/01/14 07:29:34;;;;;;;84.22;7.78;;;;;;;6.80;100.00;98178.50;4990829;28;20137;-56
2023/01/14 07:32:00;;;;;;;61.25;6.35;;;;;;;6.98;100.00;98172.72;4992533;28;20034;-56
2023/01/14 07:34:25;;;;;;;65.30;6.32;;;;;;;7.09;100.00;98165.09;4990838;28;20019;-56
2023/01/14 07:36:51;;;;;;;61.70;5.85;;;;;;;7.41;100.00;98164.66;4990497;28;20042;-56
2023/01/14 07:39:16;;;;;;;48.90;5.03;;;;;;;7.81;100.00;98154.75;4993057;28;20124;-57
2023/01/14 07:41:41;;;;;;;59.47;6.22;;;;;;;8.38;100.00;98156.13;4988522;28;20069;-56
2023/01/14 07:44:07;;;;;;;55.38;5.22;;;;;;;8.15;100.00;98149.03;4991268;28;20026;-57
2023/01/14 07:46:33;;;;;;;60.55;5.75;;;;;;;7.63;100.00;98151.94;4990840;28;20038;-57
2023/01/14 07:48:58;;;;;;;55.30;4.88;;;;;;;7.35;100.00;98152.50;4990241;28;20113;-56
2023/01/14 07:51:24;;;;;;;56.25;5.88;;;;;;;6.80;100.00;98144.88;4989767;28;20506;-56
2023/01/14 07:53:49;;;;;;;63.83;6.13;;;;;;;6.75;100.00;98147.38;4994401;28;20615;-56
2023/01/14 07:56:15;;;;;;;55.38;5.18;;;;;;;6.55;100.00;98147.97;4993955;28;20053;-56
2023/01/14 07:58:41;;;;;;;62.90;5.85;;;;;;;6.77;100.00;98144.00;4994366;28;20030;-57
2023/01/14 08:01:07;;;;;;;82.63;7.03;;;;;;;6.41;100.00;98152.03;4990275;28;20085;-56
2023/01/14 08:03:33;;;;;;;48.28;4.97;;;;;;;6.69;100.00;98149.91;4989749;28;20026;-58
2023/01/14 08:06:02;;;;;;;68.00;5.97;;;;;;;6.84;100.00;98152.72;4994692;28;20045;-55
2023/01/14 08:08:28;;;;;;;37.05;4.05;;;;;;;6.55;100.00;98144.50;4998947;28;20087;-56
2023/01/14 08:10:53;;;;;;;50.38;4.95;;;;;;;6.42;100.00;98149.47;4998262;28;20042;-54
2023/01/14 08:13:19;;;;;;;49.58;4.93;;;;;;;6.17;100.00;98138.78;4993912;28;20455;-54
2023/01/14 08:15:44;;;;;;;41.03;4.35;;;;;;;6.12;100.00;98142.97;4993826;28;20062;-55
2023/01/14 08:18:09;;;;;;;54.40;5.43;;;;;;;6.28;100.00;98138.94;4994686;28;20033;-54
2023/01/14 08:20:35;;;;;;;50.92;4.72;;;;;;;6.34;100.00;98136.44;4996305;28;20061;-59
2023/01/14 08:23:00;;;;;;;49.50;5.03;;;;;;;6.36;100.00;98128.72;4994224;28;20524;-57
2023/01/14 08:25:27;;;;;;;47.75;4.70;;;;;;;6.91;100.00;98122.63;4978819;28;20085;-55
2023/01/14 08:27:53;;;;;;;56.70;5.30;;;;;;;7.62;100.00;98120.03;4993906;28;20663;-56
2023/01/14 08:30:19;;;;;;;67.32;5.45;;;;;;;7.27;100.00;98107.53;4994565;28;20500;-55
2023/01/14 08:32:44;;;;;;;41.53;4.10;;;;;;;7.98;100.00;98114.34;4998238;28;20038;-55
2023/01/14 08:35:10;;;;;;;48.42;4.78;;;;;;;7.61;100.00;98105.34;4991547;28;20033;-57
2023/01/14 08:37:36;;;;;;;39.00;4.05;;;;;;;7.27;100.00;98116.19;4992795;28;20033;-56
2023/01/14 08:40:02;;;;;;;47.03;4.65;;;;;;;8.00;100.00;98102.25;4997456;28;20036;-57
2023/01/14 08:42:28;;;;;;;67.22;5.80;;;;;;;8.42;100.00;98100.84;4991794;28;20104;-55
2023/01/14 08:44:53;;;;;;;47.53;4.45;;;;;;;8.28;100.00;98098.16;4993108;28;20034;-55
2023/01/14 08:47:18;;;;;;;45.20;4.43;;;;;;;8.12;100.00;98104.09;4994294;28;20052;-56
2023/01/14 08:49:44;;;;;;;58.30;5.25;;;;;;;7.76;100.00;98090.81;4994667;28;20030;-57
2023/01/14 08:52:09;;;;;;;53.13;4.63;;;;;;;8.13;100.00;98091.13;4994081;28;20619;-58
2023/01/14 08:54:34;;;;;;;66.35;5.72;;;;;;;8.53;100.00;98098.38;4996656;28;20176;-56
2023/01/14 08:57:01;;;;;;;50.67;4.85;;;;;;;8.00;100.00;98097.94;4994960;28;20038;-58
2023/01/14 08:59:26;;;;;;;50.17;4.95;;;;;;;8.25;100.00;98089.50;4978235;28;20113;-57
2023/01/14 09:01:52;;;;;;;49.92;4.65;;;;;;;8.34;100.00;98094.75;4993091;28;20060;-58
2023/01/14 09:04:17;;;;;;;51.70;5.07;;;;;;;8.68;100.00;98100.19;4992803;28;20034;-56
2023/01/14 09:17:43;;;;;;;38.92;3.80;;;;;;;8.70;100.00;98082.94;4992579;28;20088;-56
2023/01/14 09:20:11;;;;;;;40.95;4.03;;;;;;;9.23;100.00;98075.38;4976514;28;20029;-55
2023/01/14 09:22:38;;;;;;;42.50;4.43;;;;;;;9.47;100.00;98060.72;4994363;28;20027;-58
2023/01/14 09:25:03;;;;;;;53.75;5.13;;;;;;;9.32;100.00;98060.69;4993883;28;20034;-55
2023/01/14 09:27:31;;;;;;;47.83;4.97;;;;;;;9.22;100.00;98065.00;4994230;28;20412;-55
2023/01/14 09:29:56;;;;;;;51.13;5.28;;;;;;;9.34;100.00;98067.63;4992781;28;20034;-55
2023/01/14 09:32:22;;;;;;;72.18;6.28;;;;;;;8.97;100.00;98067.47;4985433;28;20033;-56
2023/01/14 09:34:49;;;;;;;69.93;5.72;;;;;;;9.30;100.00;98067.59;4987109;28;20026;-54
2023/01/14 09:37:16;;;;;;;82.45;6.60;;;;;;;8.82;100.00;98070.88;4987270;28;20249;-55
2023/01/14 09:39:41;;;;;;;81.55;7.10;;;;;;;8.97;100.00;98060.59;4988425;28;20108;-57
2023/01/14 09:42:31;;;;;;;60.95;5.43;;;;;;;8.55;100.00;98065.56;4987810;28;20124;-55
2023/01/14 09:45:11;;;;;;;50.97;6.80;;;;;;;9.02;100.00;98062.34;4991052;28;20484;-55
2023/01/14 09:47:37;;;;;;;61.67;5.85;;;;;;;9.10;100.00;98058.03;4991596;28;20155;-56
2023/01/14 09:50:06;;;;;;;64.18;5.95;;;;;;;9.03;100.00;98056.28;4990760;28;20138;-56
2023/01/14 09:52:54;;;;;;;69.78;6.28;;;;;;;8.68;100.00;98056.13;4990050;28;20042;-57
2023/01/14 09:55:38;;;;;;;58.95;5.63;;;;;;;9.32;100.00;98043.38;4989218;28;20529;-57
2023/01/14 09:58:20;;;;;;;51.83;4.75;;;;;;;9.62;100.00;98033.06;4990208;28;20022;-56
2023/01/14 10:00:56;;;;;;;70.70;6.70;;;;;;;9.63;100.00;98021.81;4988923;28;20678;-58
2023/01/14 10:03:36;;;;;;;50.85;5.55;;;;;;;9.20;100.00;98020.88;4991431;28;20035;-58
2023/01/14 10:06:07;;;;;;;61.42;6.18;;;;;;;9.37;100.00;98018.31;4987749;28;20338;-57
2023/01/14 10:08:40;;;;;;;77.97;7.35;;;;;;;9.34;100.00;98009.66;4988608;28;20033;-57
2023/01/14 10:11:07;;;;;;;46.63;4.93;;;;;;;9.05;100.00;97997.50;4990673;28;20115;-56
2023/01/14 10:13:38;;;;;;;63.10;5.38;;;;;;;9.01;100.00;97991.41;4989809;28;20022;-55
2023/01/14 10:16:16;;;;;;;50.55;4.60;;;;;;;9.06;100.00;97983.66;4991944;28;20038;-58
2023/01/14 10:19:31;;;;;;;95.03;8.15;;;;;;;9.29;100.00;97982.81;4972473;28;20026;-55
2023/01/14 10:22:19;;;;;;;62.22;5.82;;;;;;;9.26;100.00;97981.09;4962764;28;20045;-55
2023/01/14 10:24:45;;;;;;;58.00;5.22;;;;;;;9.08;100.00;97985.38;4988709;28;20121;-55
2023/01/14 10:27:18;;;;;;;50.15;4.65;;;;;;;9.47;100.00;97969.00;4991618;28;20120;-56
2023/01/14 10:29:46;;;;;;;80.13;6.78;;;;;;;9.30;100.00;97969.84;4991595;28;20026;-56
2023/01/14 10:32:14;;;;;;;51.25;4.90;;;;;;;9.52;100.00;97956.88;4990982;28;20042;-56
2023/01/14 10:34:46;;;;;;;73.85;6.20;;;;;;;9.28;100.00;97949.94;4986794;28;20418;-56
2023/01/14 10:37:12;;;;;;;67.75;6.68;;;;;;;9.86;100.00;97954.28;4990268;28;20744;-56
2023/01/14 10:39:50;;;;;;;83.18;7.22;;;;;;;9.64;100.00;97946.50;4989925;28;20149;-56
2023/01/14 10:42:24;;;;;;;49.65;4.65;;;;;;;9.32;100.00;97943.91;4990484;28;20046;-56
2023/01/14 10:44:49;;;;;;;57.97;6.38;;;;;;;9.85;100.00;97943.88;4977925;28;20025;-56
2023/01/14 10:47:16;;;;;;;72.60;6.60;;;;;;;9.61;100.00;97930.03;4989731;28;20037;-55
2023/01/14 10:49:55;;;;;;;86.60;7.72;;;;;;;9.48;100.00;97927.47;4989536;28;20106;-55
2023/01/14 10:52:32;;;;;;;57.90;5.00;;;;;;;9.59;100.00;97922.28;4990612;28;20053;-56
2023/01/14 10:55:00;;;;;;;56.83;5.75;;;;;;;9.67;100.00;97919.66;4992648;28;20613;-55
2023/01/14 10:57:28;;;;;;;53.58;5.10;;;;;;;9.16;100.00;97906.69;4989991;28;20048;-55
2023/01/14 10:59:58;;;;;;;64.80;6.20;;;;;;;9.74;100.00;97900.63;4991172;28;20071;-56
2023/01/14 11:02:26;;;;;;;70.82;6.40;;;;;;;9.70;100.00;97901.50;4989732;28;20046;-56
2023/01/14 11:04:52;;;;;;;56.75;5.30;;;;;;;9.69;100.00;97898.91;4987231;28;20103;-55
2023/01/14 11:07:29;;;;;;;50.65;4.97;;;;;;;9.88;100.00;97890.19;4987552;28;20878;-55
2023/01/14 11:09:56;;;;;;;65.32;5.85;;;;;;;9.88;100.00;97887.59;4989017;28;20034;-56
2023/01/14 11:12:31;;;;;;;78.45;6.82;;;;;;;9.98;100.00;97885.84;4989277;28;20880;-57
2023/01/14 11:14:57;;;;;;;52.20;5.05;;;;;;;9.84;100.00;97872.03;4991933;28;20512;-55
2023/01/14 11:17:29;;;;;;;47.25;4.60;;;;;;;9.61;100.00;97867.72;4991006;28;20318;-54
2023/01/14 11:20:23;;;;;;;58.65;5.40;;;;;;;9.83;100.00;97863.38;4986446;28;20061;-54
2023/01/14 11:23:02;;;;;;;66.18;5.95;;;;;;;10.14;100.00;97859.81;4988152;28;20120;-56
2023/01/14 11:25:28;;;;;;;64.32;5.72;;;;;;;9.73;100.00;97852.13;4988009;28;20045;-53
2023/01/14 11:27:56;;;;;;;66.25;6.18;;;;;;;10.12;100.00;97852.03;4993044;28;21080;-52
2023/01/14 11:30:23;;;;;;;71.75;6.35;;;;;;;10.11;100.00;97845.09;4992716;28;20034;-53
2023/01/14 11:32:51;;;;;;;80.05;7.07;;;;;;;10.38;100.00;97839.78;4992470;28;20046;-55
2023/01/14 11:35:24;;;;;;;46.25;4.63;;;;;;;10.66;100.00;97834.47;4992006;28;20598;-57
2023/01/14 11:37:53;;;;;;;67.95;6.82;;;;;;;10.62;100.00;97832.75;4996052;28;20163;-53
2023/01/14 11:43:25;;;;;;;59.28;6.85;;;;;;;11.65;100.00;97816.31;4993073;28;20562;-54
2023/01/14 11:46:12;;;;;;;77.78;7.03;;;;;;;11.61;100.00;97806.78;4991017;28;20050;-55
2023/01/14 11:48:40;;;;;;;67.00;6.70;;;;;;;11.66;100.00;97802.41;4992347;28;20041;-54
2023/01/14 11:51:17;;;;;;;61.15;5.88;;;;;;;11.46;100.00;97803.44;4993943;28;20037;-55
2023/01/14 11:53:46;;;;;;;55.83;5.18;;;;;;;12.27;100.00;97802.56;4992480;28;20033;-55
2023/01/14 11:56:27;;;;;;;40.13;4.50;;;;;;;11.51;100.00;97788.63;4992784;28;20075;-54
2023/01/14 11:58:53;;;;;;;74.30;6.47;;;;;;;11.79;100.00;97783.13;4993727;28;20030;-57
2023/01/14 12:01:48;;;;;;;58.63;5.95;;;;;;;11.45;100.00;97780.91;4991301;28;20048;-56
2023/01/14 12:04:20;;;;;;;59.95;5.93;;;;;;;10.90;100.00;97775.31;4992519;28;20022;-56
2023/01/14 12:06:52;;;;;;;53.50;5.40;;;;;;;11.66;100.00;97781.56;4992707;28;20144;-56